Time;durP1;ratioP1;P1;durP2;ratioP2;P2;SDS_P1;SDS_P2;PMS_P1;PMS_P2;Temp;Humidity;BMP_temperature;BMP_pressure;BME280_temperature;BME280_humidity;BME280_pressure;Samples;Min_cycle;Max_cycle;Signal;HPM_P1;HPM_P2
2021/05/10 00:00:49;;;;;;;1.38;1.17;;;22.20;81.50;;;;;;5066836;28;20194;-71
2021/05/10 00:03:15;;;;;;;1.70;1.17;;;22.10;81.80;;;;;;5071905;28;20198;-71
2021/05/10 00:05:41;;;;;;;1.92;1.30;;;22.10;82.00;;;;;;5072185;28;20267;-71
2021/05/10 00:08:08;;;;;;;1.50;1.25;;;22.10;82.40;;;;;;5064196;28;20215;-70
2021/05/10 00:10:38;;;;;;;2.33;1.13;;;22.10;82.80;;;;;;5064048;28;20225;-71
2021/05/10 00:13:06;;;;;;;1.20;1.05;;;22.10;83.00;;;;;;5071039;28;20206;-71
2021/05/10 00:15:33;;;;;;;1.20;0.90;;;22.00;83.10;;;;;;5071966;28;20198;-72
2021/05/10 00:18:02;;;;;;;1.67;1.20;;;22.00;83.40;;;;;;5059537;28;20203;-72
2021/05/10 00:20:30;;;;;;;1.15;1.05;;;22.00;83.60;;;;;;5070440;28;20236;-72
2021/05/10 00:22:56;;;;;;;1.40;1.20;;;22.00;83.90;;;;;;5071840;28;20256;-71
2021/05/10 00:25:22;;;;;;;2.03;1.35;;;21.90;83.90;;;;;;5062855;28;20696;-71
2021/05/10 00:27:48;;;;;;;1.70;1.20;;;21.90;84.20;;;;;;5051525;28;20199;-71
2021/05/10 00:30:17;;;;;;;1.60;1.00;;;21.90;84.40;;;;;;5060759;28;20209;-71
2021/05/10 00:32:43;;;;;;;1.58;1.10;;;21.90;84.60;;;;;;5061913;28;20209;-71
2021/05/10 00:35:10;;;;;;;1.55;1.45;;;21.90;84.80;;;;;;5071765;28;20546;-71
2021/05/10 00:37:37;;;;;;;1.50;1.10;;;21.90;84.90;;;;;;5066613;28;20212;-71
2021/05/10 00:40:05;;;;;;;1.85;0.93;;;21.80;84.90;;;;;;5058789;28;20209;-71
2021/05/10 00:42:31;;;;;;;2.10;1.10;;;21.90;85.10;;;;;;5070794;28;20194;-71
2021/05/10 00:44:57;;;;;;;1.88;1.15;;;21.80;85.10;;;;;;5070130;28;20247;-71
2021/05/10 00:47:25;;;;;;;1.40;1.10;;;21.80;85.30;;;;;;5071475;28;20190;-72
2021/05/10 00:49:51;;;;;;;1.00;0.90;;;21.80;85.50;;;;;;5070842;28;20301;-72
2021/05/10 00:52:17;;;;;;;2.50;1.10;;;21.80;85.60;;;;;;5071134;28;20831;-72
2021/05/10 00:54:43;;;;;;;1.15;0.90;;;21.80;85.90;;;;;;5070249;28;20202;-72
2021/05/10 00:57:10;;;;;;;1.65;1.35;;;21.80;86.10;;;;;;5071058;28;20341;-72
2021/05/10 00:59:38;;;;;;;1.20;1.10;;;21.80;86.30;;;;;;5071216;28;20198;-72
2021/05/10 01:02:05;;;;;;;1.65;1.05;;;21.70;86.40;;;;;;5064640;28;20771;-72
2021/05/10 01:04:32;;;;;;;2.70;1.40;;;21.70;86.50;;;;;;5051430;28;20202;-72
2021/05/10 01:06:58;;;;;;;1.52;1.10;;;21.70;86.70;;;;;;5053043;28;20209;-72
2021/05/10 01:09:24;;;;;;;1.42;1.20;;;21.70;86.90;;;;;;5070776;28;20215;-72
2021/05/10 01:11:51;;;;;;;2.70;1.40;;;21.70;87.00;;;;;;5060428;28;20281;-72
2021/05/10 01:14:17;;;;;;;1.40;1.30;;;21.70;87.20;;;;;;5071143;28;20197;-71
2021/05/10 01:16:43;;;;;;;1.20;0.90;;;21.70;87.30;;;;;;5069676;28;20212;-72
2021/05/10 01:19:11;;;;;;;1.10;0.98;;;21.60;87.30;;;;;;5070167;28;20233;-72
2021/05/10 01:21:38;;;;;;;1.33;1.10;;;21.70;87.50;;;;;;5070470;28;20194;-71
2021/05/10 01:24:06;;;;;;;1.63;1.30;;;21.60;87.40;;;;;;5069121;28;20228;-71
2021/05/10 01:26:32;;;;;;;1.10;1.00;;;21.60;87.20;;;;;;5070947;28;20905;-71
2021/05/10 01:28:59;;;;;;;1.48;1.00;;;21.60;87.30;;;;;;5068437;28;20225;-72
2021/05/10 01:31:25;;;;;;;2.25;1.15;;;21.60;87.30;;;;;;5051013;28;20651;-72
2021/05/10 01:33:51;;;;;;;2.05;1.23;;;21.60;87.50;;;;;;5050924;28;20199;-72
2021/05/10 01:36:17;;;;;;;2.50;1.23;;;21.50;87.30;;;;;;5050699;28;20210;-72
2021/05/10 01:38:44;;;;;;;1.48;1.15;;;21.60;87.60;;;;;;5066195;28;20194;-72
2021/05/10 01:41:11;;;;;;;2.05;1.08;;;21.50;87.60;;;;;;5054274;28;20642;-72
2021/05/10 01:43:37;;;;;;;3.72;1.30;;;21.50;87.60;;;;;;5069266;28;20210;-72
2021/05/10 01:46:03;;;;;;;1.73;1.40;;;21.50;87.70;;;;;;5050974;28;20202;-72
2021/05/10 01:48:29;;;;;;;2.20;1.27;;;21.50;87.90;;;;;;5050719;28;20219;-72
2021/05/10 01:50:56;;;;;;;1.05;0.80;;;21.50;88.00;;;;;;5066338;28;20638;-72
2021/05/10 01:53:22;;;;;;;1.33;1.23;;;21.50;88.10;;;;;;5069749;28;20191;-72
2021/05/10 01:55:48;;;;;;;6.07;1.33;;;21.50;88.30;;;;;;5070077;28;20259;-71
2021/05/10 01:58:16;;;;;;;1.42;0.90;;;21.50;88.40;;;;;;5070449;28;20217;-72
2021/05/10 02:00:44;;;;;;;1.10;0.95;;;21.40;88.40;;;;;;5062416;28;20603;-72
2021/05/10 02:03:12;;;;;;;1.30;1.00;;;21.50;88.70;;;;;;5065103;28;20601;-72
2021/05/10 02:05:39;;;;;;;1.45;1.20;;;21.40;88.70;;;;;;5069977;28;20197;-72
2021/05/10 02:08:07;;;;;;;1.70;1.10;;;21.40;88.80;;;;;;5066403;28;20635;-72
2021/05/10 02:10:36;;;;;;;1.10;1.00;;;21.40;89.00;;;;;;5069949;28;20240;-72
2021/05/10 02:13:04;;;;;;;1.90;1.30;;;21.40;89.10;;;;;;5069921;28;20291;-72
2021/05/10 02:15:33;;;;;;;1.45;0.98;;;21.40;89.20;;;;;;5068418;28;20206;-73
2021/05/10 02:18:02;;;;;;;1.98;1.33;;;21.30;89.30;;;;;;5069674;28;20255;-72
2021/05/10 02:20:29;;;;;;;1.92;1.20;;;21.30;89.40;;;;;;5068525;28;20229;-72
2021/05/10 02:22:57;;;;;;;1.80;1.02;;;21.30;89.50;;;;;;5069882;28;20205;-72
2021/05/10 02:25:24;;;;;;;1.27;0.88;;;21.30;89.70;;;;;;5070082;28;20194;-72
2021/05/10 02:27:52;;;;;;;1.10;0.90;;;21.30;89.80;;;;;;5069942;28;20201;-72
2021/05/10 02:30:19;;;;;;;3.22;1.42;;;21.30;90.00;;;;;;5063077;28;20292;-72
2021/05/10 02:32:47;;;;;;;1.42;1.10;;;21.30;90.00;;;;;;5064881;28;20236;-72
2021/05/10 02:35:13;;;;;;;1.30;1.17;;;21.30;90.10;;;;;;5069617;28;20223;-72
2021/05/10 02:37:40;;;;;;;1.58;1.33;;;21.20;90.10;;;;;;5068922;28;20205;-72
2021/05/10 02:40:08;;;;;;;4.03;1.30;;;21.20;90.10;;;;;;5070236;28;20516;-72
2021/05/10 02:42:35;;;;;;;1.50;1.30;;;21.20;90.20;;;;;;5068278;28;20562;-72
2021/05/10 02:45:01;;;;;;;1.15;1.00;;;21.20;90.30;;;;;;5065768;28;20194;-73
2021/05/10 02:47:27;;;;;;;1.58;1.00;;;21.20;90.30;;;;;;5069650;28;20233;-73
2021/05/10 02:49:55;;;;;;;1.20;0.90;;;21.20;90.40;;;;;;5061453;28;20210;-73
2021/05/10 02:52:21;;;;;;;1.55;1.45;;;21.20;90.40;;;;;;5073383;28;20205;-72
2021/05/10 02:54:48;;;;;;;1.30;1.20;;;21.20;90.50;;;;;;5073104;28;20206;-73
2021/05/10 02:57:14;;;;;;;3.28;1.10;;;21.20;90.50;;;;;;5073361;28;20198;-72
2021/05/10 02:59:41;;;;;;;1.20;1.10;;;21.10;90.50;;;;;;5073433;28;20194;-73
2021/05/10 03:02:07;;;;;;;1.95;1.30;;;21.10;90.60;;;;;;5073089;28;20631;-73
2021/05/10 03:04:33;;;;;;;1.60;1.25;;;21.10;90.60;;;;;;5072249;28;20198;-73
2021/05/10 03:07:00;;;;;;;2.00;1.50;;;21.10;90.70;;;;;;5073397;28;20198;-72
2021/05/10 03:09:26;;;;;;;1.50;1.20;;;21.10;90.80;;;;;;5073162;28;20223;-72
2021/05/10 03:11:52;;;;;;;1.77;1.10;;;21.10;90.80;;;;;;5064783;28;20201;-72
2021/05/10 03:14:19;;;;;;;1.50;1.02;;;21.10;90.80;;;;;;5057524;28;20194;-71
2021/05/10 03:16:45;;;;;;;1.88;1.27;;;21.10;90.90;;;;;;5073098;28;20202;-72
2021/05/10 03:19:11;;;;;;;1.75;1.63;;;21.10;91.00;;;;;;5072772;28;20256;-72
2021/05/10 03:21:38;;;;;;;1.85;1.15;;;21.10;91.00;;;;;;5071615;28;20191;-72
2021/05/10 03:24:06;;;;;;;1.40;1.30;;;21.00;91.00;;;;;;5073150;28;20202;-72
2021/05/10 03:26:32;;;;;;;2.03;1.10;;;21.00;91.10;;;;;;5072914;28;20186;-72
2021/05/10 03:28:59;;;;;;;1.10;1.00;;;21.00;91.20;;;;;;5060268;28;20229;-72
2021/05/10 03:31:25;;;;;;;1.50;1.30;;;21.00;91.20;;;;;;5072785;28;20198;-72
2021/05/10 03:33:51;;;;;;;1.15;0.90;;;21.00;91.30;;;;;;5063118;28;20225;-72
2021/05/10 03:36:17;;;;;;;1.30;1.10;;;21.00;91.30;;;;;;5072967;28;20229;-72
2021/05/10 03:38:44;;;;;;;1.42;1.02;;;21.00;91.30;;;;;;5069694;28;20198;-73
2021/05/10 03:41:11;;;;;;;1.40;1.10;;;21.00;91.40;;;;;;5067129;28;20233;-73
2021/05/10 03:43:37;;;;;;;1.75;1.15;;;21.00;91.40;;;;;;5052676;28;20199;-72
2021/05/10 03:46:03;;;;;;;3.05;1.13;;;21.00;91.40;;;;;;5070513;28;20194;-72
2021/05/10 03:48:29;;;;;;;2.05;1.27;;;20.90;91.40;;;;;;5072595;28;20202;-72
2021/05/10 03:50:56;;;;;;;1.83;1.40;;;20.90;91.40;;;;;;5055715;28;20203;-72
2021/05/10 03:53:22;;;;;;;1.70;1.40;;;20.90;91.40;;;;;;5053002;28;20206;-72
2021/05/10 03:55:48;;;;;;;1.20;1.10;;;20.90;91.40;;;;;;5067066;28;20259;-72
2021/05/10 03:58:15;;;;;;;1.30;1.20;;;20.90;91.50;;;;;;5064637;28;20199;-72
2021/05/10 04:00:42;;;;;;;1.30;1.20;;;20.90;91.50;;;;;;5068962;28;20696;-72
2021/05/10 04:03:09;;;;;;;1.75;1.23;;;20.80;91.50;;;;;;5072103;28;20201;-72
2021/05/10 04:05:54;;;;;;;1.70;1.40;;;20.80;91.50;;;;;;5062842;28;20596;-72
2021/05/10 04:08:41;;;;;;;2.38;1.35;;;20.80;91.60;;;;;;5052496;28;20191;-72
2021/05/10 04:11:11;;;;;;;1.88;1.20;;;20.80;91.50;;;;;;5071693;28;20638;-72
2021/05/10 04:13:40;;;;;;;1.73;1.63;;;20.80;91.60;;;;;;5069022;28;20199;-71
2021/05/10 04:16:07;;;;;;;1.40;1.30;;;20.80;91.60;;;;;;5072224;28;20213;-72
2021/05/10 04:18:34;;;;;;;1.60;1.40;;;20.80;91.70;;;;;;5071948;28;20217;-72
2021/05/10 04:21:01;;;;;;;1.52;1.40;;;20.80;91.70;;;;;;5071352;28;20194;-72
2021/05/10 04:23:27;;;;;;;1.67;1.30;;;20.80;91.70;;;;;;5069243;28;20271;-72
2021/05/10 04:25:54;;;;;;;1.33;1.23;;;20.70;91.70;;;;;;5071007;28;20194;-72
2021/05/10 04:28:21;;;;;;;1.20;0.95;;;20.70;91.70;;;;;;5071961;28;20194;-72
2021/05/10 04:30:49;;;;;;;1.30;1.15;;;20.70;91.70;;;;;;5066624;28;20197;-72
2021/05/10 04:33:16;;;;;;;1.15;1.05;;;20.70;91.80;;;;;;5071575;28;20577;-72
2021/05/10 04:35:42;;;;;;;1.17;1.02;;;20.70;91.80;;;;;;5069149;28;20194;-71
2021/05/10 04:38:11;;;;;;;1.20;1.00;;;20.70;91.80;;;;;;5055193;28;20707;-72
2021/05/10 04:40:39;;;;;;;1.10;0.90;;;20.70;91.90;;;;;;5071270;28;20339;-73
2021/05/10 04:43:06;;;;;;;1.30;1.20;;;20.70;91.90;;;;;;5070778;28;20580;-72
2021/05/10 04:45:32;;;;;;;1.45;1.10;;;20.70;91.90;;;;;;5051764;28;20260;-72
2021/05/10 04:47:59;;;;;;;1.20;1.08;;;20.70;91.90;;;;;;5051446;28;20207;-72
2021/05/10 04:50:25;;;;;;;1.40;1.10;;;20.70;92.00;;;;;;5066104;28;20260;-71
2021/05/10 04:52:52;;;;;;;1.25;1.15;;;20.70;92.00;;;;;;5063221;28;20206;-71
2021/05/10 04:55:18;;;;;;;3.88;1.40;;;20.70;92.00;;;;;;5051585;28;20218;-71
2021/05/10 04:57:44;;;;;;;2.05;1.23;;;20.70;92.00;;;;;;5054938;28;20649;-71
2021/05/10 05:00:13;;;;;;;1.80;1.10;;;20.70;92.00;;;;;;5069664;28;20244;-71
2021/05/10 05:02:39;;;;;;;2.25;1.30;;;20.70;92.00;;;;;;5070822;28;20201;-71
2021/05/10 05:05:09;;;;;;;1.60;1.50;;;20.70;91.90;;;;;;5071080;28;20202;-71
2021/05/10 05:07:35;;;;;;;3.05;1.63;;;20.70;91.70;;;;;;5070887;28;20213;-71
2021/05/10 05:10:02;;;;;;;2.30;1.15;;;20.70;91.70;;;;;;5060134;28;20218;-71
2021/05/10 05:12:28;;;;;;;1.45;1.15;;;20.70;91.80;;;;;;5067047;28;20251;-71
2021/05/10 05:14:54;;;;;;;1.80;1.20;;;20.70;91.70;;;;;;5070968;28;20547;-71
2021/05/10 05:17:20;;;;;;;2.47;1.55;;;20.70;91.80;;;;;;5069950;28;20208;-71
2021/05/10 05:19:47;;;;;;;1.45;1.10;;;20.60;91.70;;;;;;5064705;28;20279;-71
2021/05/10 05:22:14;;;;;;;2.45;1.40;;;20.60;91.70;;;;;;5070543;28;20220;-71
2021/05/10 05:24:40;;;;;;;1.88;1.25;;;20.60;91.60;;;;;;5063819;28;20195;-71
2021/05/10 05:27:06;;;;;;;2.47;1.45;;;20.60;91.60;;;;;;5064965;28;20198;-71
2021/05/10 05:29:32;;;;;;;2.25;1.10;;;20.60;91.50;;;;;;5070803;28;20531;-72
2021/05/10 05:31:59;;;;;;;3.80;1.67;;;20.60;91.50;;;;;;5068584;28;20210;-71
2021/05/10 05:34:25;;;;;;;1.40;1.20;;;20.60;91.40;;;;;;5067481;28;20212;-70
2021/05/10 05:36:52;;;;;;;3.10;1.30;;;20.60;91.50;;;;;;5050393;28;20217;-72
2021/05/10 05:39:19;;;;;;;2.38;1.50;;;20.60;91.50;;;;;;5062809;28;20198;-70
2021/05/10 05:41:45;;;;;;;1.83;1.40;;;20.60;91.40;;;;;;5068606;28;20198;-71
2021/05/10 05:44:12;;;;;;;4.20;1.20;;;20.60;91.30;;;;;;5070436;28;20285;-71
2021/05/10 05:46:41;;;;;;;1.90;1.10;;;20.60;91.30;;;;;;5069722;28;20186;-71
2021/05/10 05:49:08;;;;;;;3.65;1.50;;;20.70;91.30;;;;;;5070737;28;20263;-70
2021/05/10 05:51:35;;;;;;;2.55;1.52;;;20.70;91.20;;;;;;5067090;28;20205;-71
2021/05/10 05:54:01;;;;;;;3.20;1.48;;;20.70;91.10;;;;;;5070506;28;20209;-71
2021/05/10 05:56:28;;;;;;;2.22;1.25;;;20.70;91.10;;;;;;5070041;28;20271;-71
2021/05/10 05:58:55;;;;;;;1.40;1.10;;;20.70;91.00;;;;;;5068710;28;20210;-71
2021/05/10 06:01:24;;;;;;;1.50;1.17;;;20.70;91.40;;;;;;5069680;28;20198;-71
2021/05/10 06:03:50;;;;;;;2.67;1.50;;;20.70;91.00;;;;;;5057872;28;20210;-70
2021/05/10 06:06:16;;;;;;;3.15;1.45;;;20.70;91.00;;;;;;5050286;28;20206;-71
2021/05/10 06:08:42;;;;;;;1.70;1.60;;;20.70;91.10;;;;;;5050351;28;20301;-71
2021/05/10 06:11:09;;;;;;;1.83;1.63;;;20.70;91.10;;;;;;5054009;28;20194;-72
2021/05/10 06:13:37;;;;;;;3.92;1.85;;;20.70;91.10;;;;;;5062716;28;20201;-72
2021/05/10 06:16:04;;;;;;;2.45;1.50;;;20.70;91.20;;;;;;5070289;28;20209;-71
2021/05/10 06:18:30;;;;;;;5.22;1.38;;;20.70;91.20;;;;;;5071642;28;20233;-72
2021/05/10 06:20:59;;;;;;;2.35;1.42;;;20.70;91.30;;;;;;5074076;28;20209;-71
2021/05/10 06:23:25;;;;;;;1.50;1.25;;;20.70;91.30;;;;;;5060158;28;20205;-71
2021/05/10 06:25:52;;;;;;;3.38;1.35;;;20.70;91.30;;;;;;5073828;28;20217;-70
2021/05/10 06:28:18;;;;;;;3.15;1.80;;;20.70;91.40;;;;;;5073622;28;20242;-71
2021/05/10 06:30:45;;;;;;;1.83;1.42;;;20.70;91.50;;;;;;5067060;28;20205;-71
2021/05/10 06:33:11;;;;;;;2.42;1.25;;;20.70;91.50;;;;;;5073415;28;20202;-71
2021/05/10 06:35:37;;;;;;;2.47;1.48;;;20.70;91.60;;;;;;5072906;28;20198;-72
2021/05/10 06:38:03;;;;;;;2.45;1.40;;;20.70;91.60;;;;;;5074188;28;20193;-71
2021/05/10 06:40:30;;;;;;;2.55;2.35;;;20.70;91.70;;;;;;5063749;28;20203;-71
2021/05/10 06:42:56;;;;;;;1.92;1.10;;;20.70;91.80;;;;;;5066470;28;20198;-71
2021/05/10 06:45:22;;;;;;;1.48;1.38;;;20.70;91.90;;;;;;5073889;28;20756;-71
2021/05/10 06:47:50;;;;;;;2.45;1.33;;;20.70;92.20;;;;;;5066056;28;20244;-71
2021/05/10 06:50:17;;;;;;;3.08;1.45;;;20.70;92.00;;;;;;5066446;28;20254;-71
2021/05/10 06:52:43;;;;;;;2.78;1.15;;;20.70;92.00;;;;;;5063531;28;20203;-70
2021/05/10 06:55:09;;;;;;;5.35;1.73;;;20.70;92.10;;;;;;5056707;28;20692;-70
2021/05/10 06:57:36;;;;;;;2.42;1.30;;;20.70;92.40;;;;;;5072754;28;20190;-70
2021/05/10 07:00:04;;;;;;;2.15;1.40;;;20.70;92.10;;;;;;5072352;28;20590;-70
2021/05/10 07:02:30;;;;;;;3.00;1.48;;;20.70;92.20;;;;;;5073342;28;20519;-70
2021/05/10 07:04:57;;;;;;;4.07;1.55;;;20.70;92.30;;;;;;5072534;28;20209;-69
2021/05/10 07:07:23;;;;;;;2.35;1.67;;;20.70;92.40;;;;;;5069690;28;20270;-70
2021/05/10 07:09:49;;;;;;;1.65;1.30;;;20.70;92.40;;;;;;5056485;28;20712;-70
2021/05/10 07:12:15;;;;;;;5.25;1.45;;;20.70;92.50;;;;;;5053232;28;20199;-70
2021/05/10 07:14:42;;;;;;;3.25;1.40;;;20.70;92.80;;;;;;5052977;28;20203;-70
2021/05/10 07:17:09;;;;;;;4.18;1.80;;;20.70;92.50;;;;;;5057715;28;20213;-70
2021/05/10 07:19:35;;;;;;;4.15;2.53;;;20.80;92.60;;;;;;5073527;28;20252;-70
2021/05/10 07:22:02;;;;;;;5.43;1.90;;;20.80;92.60;;;;;;5074079;28;20682;-70
2021/05/10 07:24:28;;;;;;;3.80;1.30;;;20.80;92.60;;;;;;5073812;28;20194;-70
2021/05/10 07:26:55;;;;;;;2.75;1.40;;;20.80;92.90;;;;;;5073806;28;20194;-70
2021/05/10 07:29:22;;;;;;;1.52;1.30;;;20.80;92.50;;;;;;5072502;28;20211;-70
2021/05/10 07:31:48;;;;;;;2.65;1.38;;;20.90;92.50;;;;;;5071910;28;20829;-70
2021/05/10 07:34:14;;;;;;;2.47;1.65;;;20.90;92.30;;;;;;5054067;28;20206;-70
2021/05/10 07:36:41;;;;;;;3.25;1.55;;;21.00;92.40;;;;;;5062091;28;20253;-70
2021/05/10 07:39:08;;;;;;;5.60;1.45;;;21.00;92.40;;;;;;5073238;28;20182;-70
2021/05/10 07:41:34;;;;;;;3.42;1.52;;;21.00;92.30;;;;;;5064352;28;20272;-70
2021/05/10 07:44:01;;;;;;;1.40;1.30;;;21.10;92.30;;;;;;5058210;28;20202;-70
2021/05/10 07:46:28;;;;;;;1.75;1.48;;;21.10;92.30;;;;;;5073408;28;20193;-70
2021/05/10 07:48:54;;;;;;;2.88;1.60;;;21.30;91.90;;;;;;5073594;28;20564;-70
2021/05/10 07:51:20;;;;;;;1.50;1.23;;;21.60;91.40;;;;;;5067005;28;20199;-70
2021/05/10 07:53:46;;;;;;;2.35;1.30;;;21.90;91.10;;;;;;5053671;28;20210;-70
2021/05/10 07:56:13;;;;;;;1.80;1.37;;;22.20;90.30;;;;;;5061459;28;20194;-70
2021/05/10 07:58:43;;;;;;;1.90;1.20;;;22.40;89.10;;;;;;5062287;28;21017;-70
2021/05/10 08:01:09;;;;;;;1.30;1.15;;;22.60;87.90;;;;;;5067618;28;20206;-71
2021/05/10 08:03:36;;;;;;;1.70;1.33;;;22.90;86.90;;;;;;5073622;28;20198;-70
2021/05/10 08:06:02;;;;;;;2.33;1.10;;;23.10;86.50;;;;;;5070365;28;20464;-71
2021/05/10 08:08:29;;;;;;;2.03;1.23;;;23.20;85.50;;;;;;5053345;28;20467;-70
2021/05/10 08:10:55;;;;;;;4.07;1.13;;;23.40;84.70;;;;;;5052954;28;20928;-71
2021/05/10 08:13:23;;;;;;;1.40;1.30;;;23.50;83.80;;;;;;5068831;28;20883;-70
2021/05/10 08:15:49;;;;;;;2.40;1.40;;;23.60;83.20;;;;;;5066895;28;20539;-70
2021/05/10 08:18:15;;;;;;;1.53;1.20;;;23.60;82.80;;;;;;5072187;28;20440;-71
2021/05/10 08:20:43;;;;;;;1.80;1.07;;;23.60;82.20;;;;;;5071504;28;22710;-70
2021/05/10 08:23:09;;;;;;;1.43;1.30;;;23.50;82.00;;;;;;5072488;28;20825;-71
2021/05/10 08:25:36;;;;;;;1.57;1.07;;;23.50;82.10;;;;;;5072258;28;20444;-71
2021/05/10 08:28:02;;;;;;;1.97;0.90;;;23.50;81.80;;;;;;5072376;28;20460;-71
2021/05/10 08:30:29;;;;;;;2.17;0.90;;;23.50;81.70;;;;;;5065322;28;21011;-71
2021/05/10 08:32:57;;;;;;;1.67;1.27;;;23.50;82.00;;;;;;5064460;28;20444;-71
2021/05/10 08:35:23;;;;;;;1.97;1.13;;;23.50;81.70;;;;;;5072577;28;21002;-71
2021/05/10 08:37:50;;;;;;;3.80;1.27;;;23.50;81.80;;;;;;5071474;28;20464;-70
2021/05/10 08:40:16;;;;;;;1.73;1.20;;;23.40;81.70;;;;;;5072478;28;20449;-72
2021/05/10 08:42:44;;;;;;;1.70;0.97;;;23.40;81.80;;;;;;5072176;28;20440;-71
2021/05/10 08:45:10;;;;;;;2.93;1.33;;;23.40;81.50;;;;;;5076165;28;20448;-71
2021/05/10 08:47:39;;;;;;;1.60;1.50;;;23.40;81.50;;;;;;5056531;28;20794;-70
2021/05/10 08:50:09;;;;;;;2.53;1.03;;;23.40;81.50;;;;;;5053068;28;20476;-70
2021/05/10 08:52:35;;;;;;;3.23;1.13;;;23.30;81.60;;;;;;5052651;28;20449;-71
2021/05/10 08:55:02;;;;;;;1.10;0.90;;;23.20;81.90;;;;;;5052240;28;20949;-70
2021/05/10 08:57:28;;;;;;;2.40;1.00;;;23.10;82.30;;;;;;5053735;28;20453;-71
2021/05/10 08:59:54;;;;;;;1.30;1.10;;;23.10;82.70;;;;;;5072054;28;20466;-70
2021/05/10 09:02:30;;;;;;;1.20;1.10;;;23.10;82.70;;;;;;5061684;28;20790;-70
2021/05/10 09:05:10;;;;;;;1.47;1.10;;;23.00;82.90;;;;;;5086086;28;20454;-70
2021/05/10 09:07:36;;;;;;;1.40;0.90;;;23.00;83.10;;;;;;5054351;28;20944;-71
2021/05/10 09:10:05;;;;;;;1.20;1.07;;;23.10;83.40;;;;;;5090663;28;20471;-70
2021/05/10 09:12:45;;;;;;;4.20;1.10;;;23.20;83.50;;;;;;5076921;28;20951;-71
2021/05/10 09:15:19;;;;;;;1.20;1.00;;;23.30;82.70;;;;;;5068706;28;20437;-70
2021/05/10 09:17:47;;;;;;;1.30;1.20;;;23.40;82.80;;;;;;5088786;28;20486;-70
2021/05/10 09:20:19;;;;;;;4.60;1.10;;;23.50;82.50;;;;;;5083951;28;20857;-70
2021/05/10 09:22:53;;;;;;;1.60;1.13;;;23.60;82.30;;;;;;5071136;28;20444;-71
2021/05/10 09:25:21;;;;;;;2.93;1.33;;;23.60;82.10;;;;;;5072128;28;21012;-70
2021/05/10 09:27:48;;;;;;;1.47;1.00;;;23.60;81.70;;;;;;5077521;28;20956;-71
2021/05/10 09:30:20;;;;;;;3.77;1.33;;;23.60;81.90;;;;;;5069135;28;21164;-70
2021/05/10 09:32:52;;;;;;;2.27;1.60;;;23.50;82.00;;;;;;5068416;28;20981;-70
2021/05/10 09:35:30;;;;;;;1.90;0.90;;;23.40;82.20;;;;;;5071003;28;20443;-70
2021/05/10 09:37:59;;;;;;;1.97;1.33;;;23.40;82.50;;;;;;5077168;28;20518;-70
2021/05/10 09:40:28;;;;;;;2.90;1.20;;;23.30;82.80;;;;;;5073374;28;20444;-70
2021/05/10 09:42:55;;;;;;;3.40;1.00;;;23.20;83.10;;;;;;5051480;28;20465;-70
2021/05/10 09:45:40;;;;;;;1.47;1.20;;;23.20;83.50;;;;;;5072094;28;20447;-70
2021/05/10 09:48:12;;;;;;;5.28;1.20;;;23.10;83.90;;;;;;5070363;28;20455;-70
2021/05/10 09:50:42;;;;;;;1.83;1.20;;;23.00;84.80;;;;;;5083476;28;20224;-70
2021/05/10 09:53:11;;;;;;;5.13;1.67;;;22.80;85.00;;;;;;5072180;28;21024;-71
2021/05/10 09:55:42;;;;;;;2.03;1.30;;;22.80;85.30;;;;;;5071465;28;20453;-70
2021/05/10 09:58:08;;;;;;;1.30;1.20;;;22.80;85.50;;;;;;5069833;28;20463;-71
2021/05/10 10:00:34;;;;;;;2.20;1.43;;;22.70;85.50;;;;;;5052660;28;20197;-71
2021/05/10 10:03:01;;;;;;;3.55;1.40;;;22.70;85.50;;;;;;5070228;28;20511;-73
2021/05/10 10:05:29;;;;;;;1.80;1.02;;;22.70;85.50;;;;;;5069331;28;20194;-77
2021/05/10 10:07:57;;;;;;;2.70;1.10;;;22.60;86.50;;;;;;5068985;28;20213;-73
2021/05/10 10:10:23;;;;;;;3.17;1.25;;;22.60;85.70;;;;;;5070132;28;20210;-74
2021/05/10 10:12:50;;;;;;;5.88;1.25;;;22.60;85.90;;;;;;5060520;28;20202;-68
2021/05/10 10:15:16;;;;;;;1.75;1.00;;;22.60;86.00;;;;;;5069192;28;20216;-69
2021/05/10 10:17:46;;;;;;;1.47;1.00;;;22.50;86.10;;;;;;5057281;28;20195;-70
2021/05/10 10:20:13;;;;;;;2.88;1.00;;;22.60;86.40;;;;;;5062477;28;20491;-70
2021/05/10 10:22:39;;;;;;;4.60;1.60;;;22.60;86.40;;;;;;5067236;28;20189;-73
2021/05/10 10:25:09;;;;;;;2.17;1.00;;;22.60;86.40;;;;;;5070208;28;20209;-70
2021/05/10 10:27:36;;;;;;;1.55;0.93;;;22.60;86.50;;;;;;5069932;28;20239;-70
2021/05/10 10:30:03;;;;;;;3.15;1.20;;;22.60;86.50;;;;;;5052182;28;20215;-71
2021/05/10 10:32:31;;;;;;;1.65;0.90;;;22.60;86.40;;;;;;5067969;28;20204;-71
2021/05/10 10:34:59;;;;;;;1.45;1.00;;;22.60;86.50;;;;;;5089713;28;20544;-71
2021/05/10 10:37:26;;;;;;;1.42;0.90;;;22.60;86.40;;;;;;5076676;28;20202;-70
2021/05/10 10:39:56;;;;;;;4.07;0.98;;;22.60;86.40;;;;;;5070004;28;20275;-70
2021/05/10 10:42:25;;;;;;;1.88;1.00;;;22.60;86.30;;;;;;5075292;28;20193;-70
2021/05/10 10:44:55;;;;;;;4.60;0.90;;;22.60;86.40;;;;;;5070232;28;20285;-69
2021/05/10 10:47:44;;;;;;;1.30;1.00;;;22.60;86.40;;;;;;5050286;28;20266;-69
2021/05/10 10:50:11;;;;;;;1.40;0.95;;;22.60;86.50;;;;;;5068833;28;20194;-69
2021/05/10 10:52:48;;;;;;;3.30;0.90;;;22.60;86.30;;;;;;5068570;28;20205;-70
2021/05/10 10:55:20;;;;;;;1.10;1.00;;;22.60;86.40;;;;;;5063463;28;20201;-70
2021/05/10 10:57:47;;;;;;;1.10;0.95;;;22.60;86.40;;;;;;5067009;28;20554;-70
2021/05/10 11:00:16;;;;;;;3.80;0.98;;;22.70;86.50;;;;;;5056303;28;20233;-71
2021/05/10 11:02:45;;;;;;;1.52;1.13;;;22.70;86.40;;;;;;5062125;28;20190;-71
2021/05/10 11:05:14;;;;;;;1.00;0.90;;;22.70;86.40;;;;;;5071634;28;20198;-71
2021/05/10 11:08:01;;;;;;;1.67;1.07;;;22.70;86.30;;;;;;5071736;28;20198;-71
2021/05/10 11:10:48;;;;;;;1.23;0.90;;;22.70;86.40;;;;;;5073296;28;20842;-70
2021/05/10 11:13:36;;;;;;;1.00;0.77;;;22.70;86.20;;;;;;5068843;28;20263;-71
2021/05/10 11:16:04;;;;;;;1.08;0.80;;;22.80;86.10;;;;;;5068216;28;20450;-71
2021/05/10 11:18:44;;;;;;;1.30;0.93;;;22.80;85.50;;;;;;5072881;28;20238;-70
2021/05/10 11:21:40;;;;;;;1.60;1.00;;;22.80;85.00;;;;;;5071847;28;20861;-69
2021/05/10 11:24:10;;;;;;;1.70;0.90;;;22.80;84.90;;;;;;5068611;28;20464;-69
2021/05/10 11:26:38;;;;;;;1.50;0.85;;;22.90;84.50;;;;;;5072532;28;20547;-70
2021/05/10 11:29:06;;;;;;;1.20;0.80;;;22.90;84.20;;;;;;5071736;28;20209;-70
2021/05/10 11:31:36;;;;;;;1.53;0.80;;;22.90;84.10;;;;;;5061997;28;20236;-69
2021/05/10 11:34:15;;;;;;;2.03;0.97;;;22.90;84.00;;;;;;5067400;28;20452;-70
2021/05/10 11:36:49;;;;;;;0.90;0.67;;;22.80;83.40;;;;;;5072556;28;20432;-72
2021/05/10 11:39:23;;;;;;;1.80;0.80;;;22.90;83.60;;;;;;5067592;28;20460;-71
2021/05/10 11:41:49;;;;;;;1.63;0.80;;;22.90;83.50;;;;;;5069741;28;20823;-71
2021/05/10 11:44:24;;;;;;;1.00;0.80;;;22.90;83.10;;;;;;5066709;28;20201;-72
2021/05/10 11:46:52;;;;;;;1.38;0.88;;;22.80;83.00;;;;;;5072041;28;20444;-72
2021/05/10 11:49:30;;;;;;;5.37;1.00;;;22.90;83.10;;;;;;5071411;28;20271;-72
2021/05/10 11:51:58;;;;;;;5.43;0.80;;;22.90;83.20;;;;;;5072136;28;21126;-71
2021/05/10 11:54:24;;;;;;;1.60;0.73;;;22.90;83.40;;;;;;5068545;28;20252;-72
2021/05/10 11:56:52;;;;;;;0.90;0.68;;;22.90;83.20;;;;;;5053301;28;20244;-72
2021/05/10 11:59:30;;;;;;;1.45;0.70;;;22.90;83.40;;;;;;5063156;28;20285;-72
2021/05/10 12:01:57;;;;;;;1.20;0.70;;;22.90;83.10;;;;;;5058191;28;20198;-71
2021/05/10 12:04:26;;;;;;;1.00;0.80;;;22.90;83.10;;;;;;5072188;28;20444;-72
2021/05/10 12:06:53;;;;;;;2.03;0.70;;;22.90;83.10;;;;;;5053003;28;20448;-71
2021/05/10 12:09:36;;;;;;;1.10;0.90;;;22.90;82.80;;;;;;5064971;28;20587;-72
2021/05/10 12:12:05;;;;;;;2.28;1.00;;;22.90;82.80;;;;;;5058640;28;20447;-70
2021/05/10 12:14:31;;;;;;;1.20;0.97;;;22.90;82.80;;;;;;5069841;28;20198;-72
2021/05/10 12:17:17;;;;;;;2.40;0.80;;;23.00;82.60;;;;;;5070867;28;20444;-71
2021/05/10 12:20:08;;;;;;;1.30;0.70;;;23.00;82.60;;;;;;5070286;28;20552;-71
2021/05/10 12:22:37;;;;;;;1.10;0.80;;;23.00;82.50;;;;;;5059408;28;20570;-70
2021/05/10 12:25:10;;;;;;;1.00;0.73;;;23.00;82.30;;;;;;5068392;28;20946;-71
2021/05/10 12:27:42;;;;;;;1.20;0.73;;;23.00;82.30;;;;;;5052038;28;21179;-72
2021/05/10 12:30:14;;;;;;;1.10;0.90;;;23.00;82.10;;;;;;5051626;28;20481;-72
2021/05/10 12:32:42;;;;;;;2.53;0.95;;;23.00;82.30;;;;;;5066629;28;20558;-72
2021/05/10 12:35:11;;;;;;;1.00;0.80;;;23.10;82.30;;;;;;5070897;28;20657;-73
2021/05/10 12:37:41;;;;;;;3.33;0.90;;;23.10;81.90;;;;;;5071137;28;20456;-72
2021/05/10 12:40:10;;;;;;;1.20;0.80;;;23.10;82.10;;;;;;5057719;28;20550;-72
2021/05/10 12:42:36;;;;;;;1.10;0.97;;;23.10;81.90;;;;;;5066215;28;21300;-72
2021/05/10 12:45:05;;;;;;;2.50;1.07;;;23.10;81.90;;;;;;5070161;28;20444;-73
2021/05/10 12:47:43;;;;;;;1.20;0.83;;;23.10;82.00;;;;;;5062601;28;20447;-72
2021/05/10 12:50:12;;;;;;;3.67;0.80;;;23.10;82.10;;;;;;5070418;28;20550;-72
2021/05/10 12:52:51;;;;;;;1.00;0.80;;;23.10;82.00;;;;;;5067871;28;20526;-72